sensor_id;sensor_type;location;lat;lon;timestamp;pressure;altitude;pressure_sealevel;temperature;humidity
13027;BME280;6580;42.680;23.324;2022-11-06T00:01:50;94798.78;;;14.90;69.96
13027;BME280;6580;42.680;23.324;2022-11-06T00:04:18;94787.00;;;15.12;69.10
13027;BME280;6580;42.680;23.324;2022-11-06T00:06:45;94791.50;;;15.12;69.43
13027;BME280;6580;42.680;23.324;2022-11-06T00:09:16;94795.22;;;15.11;70.05
13027;BME280;6580;42.680;23.324;2022-11-06T00:11:43;94796.69;;;14.86;71.81
13027;BME280;6580;42.680;23.324;2022-11-06T00:14:14;94794.47;;;14.68;72.06
13027;BME280;6580;42.680;23.324;2022-11-06T00:16:42;94799.97;;;14.81;72.62
13027;BME280;6580;42.680;23.324;2022-11-06T00:19:10;94798.47;;;14.79;73.33
13027;BME280;6580;42.680;23.324;2022-11-06T00:21:38;94797.75;;;15.19;70.59
13027;BME280;6580;42.680;23.324;2022-11-06T00:24:08;94791.16;;;14.94;71.50
13027;BME280;6580;42.680;23.324;2022-11-06T00:26:36;94789.00;;;15.04;70.86
13027;BME280;6580;42.680;23.324;2022-11-06T00:29:04;94799.47;;;14.50;73.87
13027;BME280;6580;42.680;23.324;2022-11-06T00:31:35;94779.19;;;14.62;74.20
13027;BME280;6580;42.680;23.324;2022-11-06T00:34:04;94795.66;;;14.87;72.61
13027;BME280;6580;42.680;23.324;2022-11-06T00:36:32;94786.81;;;14.93;72.25
13027;BME280;6580;42.680;23.324;2022-11-06T00:38:59;94787.34;;;14.54;74.61
13027;BME280;6580;42.680;23.324;2022-11-06T00:41:26;94779.88;;;14.50;75.12
13027;BME280;6580;42.680;23.324;2022-11-06T00:43:56;94783.59;;;14.49;75.29
13027;BME280;6580;42.680;23.324;2022-11-06T00:46:24;94776.50;;;14.62;75.04
13027;BME280;6580;42.680;23.324;2022-11-06T00:48:53;94786.31;;;14.34;75.84
13027;BME280;6580;42.680;23.324;2022-11-06T00:51:26;94783.00;;;14.32;77.49
13027;BME280;6580;42.680;23.324;2022-11-06T00:54:00;94780.75;;;14.57;76.52
13027;BME280;6580;42.680;23.324;2022-11-06T00:56:28;94786.56;;;14.60;75.37
13027;BME280;6580;42.680;23.324;2022-11-06T00:59:03;94777.47;;;14.55;75.71
13027;BME280;6580;42.680;23.324;2022-11-06T01:01:32;94782.56;;;14.50;76.47
13027;BME280;6580;42.680;23.324;2022-11-06T01:04:03;94784.31;;;14.22;78.60
13027;BME280;6580;42.680;23.324;2022-11-06T01:06:32;94782.25;;;14.38;77.54
13027;BME280;6580;42.680;23.324;2022-11-06T01:09:00;94778.97;;;14.43;77.50
13027;BME280;6580;42.680;23.324;2022-11-06T01:11:30;94785.63;;;14.26;78.58
13027;BME280;6580;42.680;23.324;2022-11-06T01:13:59;94782.28;;;14.24;78.75
13027;BME280;6580;42.680;23.324;2022-11-06T01:16:27;94776.69;;;14.19;79.98
13027;BME280;6580;42.680;23.324;2022-11-06T01:18:55;94770.94;;;14.22;79.69
13027;BME280;6580;42.680;23.324;2022-11-06T01:21:26;94765.47;;;14.51;77.59
13027;BME280;6580;42.680;23.324;2022-11-06T01:23:54;94750.19;;;14.51;77.13
13027;BME280;6580;42.680;23.324;2022-11-06T01:26:22;94766.22;;;14.45;77.72
13027;BME280;6580;42.680;23.324;2022-11-06T01:28:50;94762.03;;;14.36;77.49
13027;BME280;6580;42.680;23.324;2022-11-06T01:31:19;94757.88;;;14.33;78.39
13027;BME280;6580;42.680;23.324;2022-11-06T01:33:47;94757.44;;;14.51;76.59
13027;BME280;6580;42.680;23.324;2022-11-06T01:36:16;94754.81;;;14.57;76.38
13027;BME280;6580;42.680;23.324;2022-11-06T01:38:46;94760.59;;;14.61;75.80
13027;BME280;6580;42.680;23.324;2022-11-06T01:41:15;94757.31;;;14.65;75.02
13027;BME280;6580;42.680;23.324;2022-11-06T01:43:45;94757.53;;;14.64;75.18
13027;BME280;6580;42.680;23.324;2022-11-06T01:46:12;94761.78;;;14.79;74.23
13027;BME280;6580;42.680;23.324;2022-11-06T01:48:42;94759.16;;;14.86;73.78
13027;BME280;6580;42.680;23.324;2022-11-06T01:51:10;94756.94;;;14.96;73.49
13027;BME280;6580;42.680;23.324;2022-11-06T01:53:40;94747.19;;;15.16;72.14
13027;BME280;6580;42.680;23.324;2022-11-06T01:56:12;94751.53;;;15.17;71.67
13027;BME280;6580;42.680;23.324;2022-11-06T01:58:45;94749.59;;;15.38;70.88
13027;BME280;6580;42.680;23.324;2022-11-06T02:01:14;94749.56;;;15.31;71.72
13027;BME280;6580;42.680;23.324;2022-11-06T02:03:49;94745.47;;;15.35;71.04
13027;BME280;6580;42.680;23.324;2022-11-06T02:06:18;94754.13;;;15.31;71.78
13027;BME280;6580;42.680;23.324;2022-11-06T02:08:47;94752.19;;;15.25;72.43
13027;BME280;6580;42.680;23.324;2022-11-06T02:11:17;94761.19;;;15.11;72.92
13027;BME280;6580;42.680;23.324;2022-11-06T02:13:53;94749.59;;;15.04;73.34
13027;BME280;6580;42.680;23.324;2022-11-06T02:16:29;94750.19;;;15.00;73.49
13027;BME280;6580;42.680;23.324;2022-11-06T02:22:04;94749.44;;;15.12;73.20
13027;BME280;6580;42.680;23.324;2022-11-06T02:25:02;94761.69;;;14.94;73.74
13027;BME280;6580;42.680;23.324;2022-11-06T02:27:33;94752.59;;;14.95;73.78
13027;BME280;6580;42.680;23.324;2022-11-06T02:30:03;94753.75;;;15.07;73.44
13027;BME280;6580;42.680;23.324;2022-11-06T02:32:34;94745.06;;;15.05;73.14
13027;BME280;6580;42.680;23.324;2022-11-06T02:35:18;94763.00;;;15.04;73.08
13027;BME280;6580;42.680;23.324;2022-11-06T02:37:48;94758.91;;;15.08;72.91
13027;BME280;6580;42.680;23.324;2022-11-06T02:40:18;94760.84;;;15.21;72.18
13027;BME280;6580;42.680;23.324;2022-11-06T02:42:51;94757.53;;;15.19;72.50
13027;BME280;6580;42.680;23.324;2022-11-06T02:45:21;94762.50;;;15.22;72.41
13027;BME280;6580;42.680;23.324;2022-11-06T02:47:50;94750.66;;;15.10;72.46
13027;BME280;6580;42.680;23.324;2022-11-06T02:50:23;94758.72;;;15.10;72.59
13027;BME280;6580;42.680;23.324;2022-11-06T02:52:54;94766.28;;;15.00;73.71
13027;BME280;6580;42.680;23.324;2022-11-06T02:55:26;94763.66;;;15.13;73.18
13027;BME280;6580;42.680;23.324;2022-11-06T02:58:02;94774.94;;;15.02;74.08
13027;BME280;6580;42.680;23.324;2022-11-06T03:00:35;94772.56;;;14.86;75.37
13027;BME280;6580;42.680;23.324;2022-11-06T03:03:17;94768.69;;;14.95;75.04
13027;BME280;6580;42.680;23.324;2022-11-06T03:05:50;94768.31;;;14.98;74.79
13027;BME280;6580;42.680;23.324;2022-11-06T03:08:24;94767.88;;;14.94;74.76
13027;BME280;6580;42.680;23.324;2022-11-06T03:10:58;94781.94;;;14.96;75.36
13027;BME280;6580;42.680;23.324;2022-11-06T03:13:36;94789.81;;;15.04;75.59
13027;BME280;6580;42.680;23.324;2022-11-06T03:16:14;94790.41;;;15.00;75.86
13027;BME280;6580;42.680;23.324;2022-11-06T03:18:48;94785.03;;;15.00;75.67
13027;BME280;6580;42.680;23.324;2022-11-06T03:21:24;94782.91;;;15.16;74.91
13027;BME280;6580;42.680;23.324;2022-11-06T03:23:57;94789.63;;;15.06;75.60
13027;BME280;6580;42.680;23.324;2022-11-06T03:26:32;94784.06;;;15.07;76.15
13027;BME280;6580;42.680;23.324;2022-11-06T03:29:09;94758.47;;;15.05;75.50
13027;BME280;6580;42.680;23.324;2022-11-06T03:31:43;94790.91;;;15.10;76.06
13027;BME280;6580;42.680;23.324;2022-11-06T03:34:17;94792.50;;;15.04;76.21
13027;BME280;6580;42.680;23.324;2022-11-06T03:36:52;94801.38;;;15.05;76.98
13027;BME280;6580;42.680;23.324;2022-11-06T03:39:27;94798.44;;;15.00;76.61
13027;BME280;6580;42.680;23.324;2022-11-06T03:42:01;94803.69;;;15.08;76.23
13027;BME280;6580;42.680;23.324;2022-11-06T03:44:32;94801.41;;;14.84;76.74
13027;BME280;6580;42.680;23.324;2022-11-06T03:47:07;94796.44;;;14.60;78.57
13027;BME280;6580;42.680;23.324;2022-11-06T03:49:40;94791.19;;;14.45;80.17
13027;BME280;6580;42.680;23.324;2022-11-06T03:52:12;94790.97;;;14.47;80.98
13027;BME280;6580;42.680;23.324;2022-11-06T03:54:46;94791.72;;;14.41;81.54
13027;BME280;6580;42.680;23.324;2022-11-06T03:57:19;94794.78;;;14.38;82.28
13027;BME280;6580;42.680;23.324;2022-11-06T03:59:51;94788.03;;;14.42;81.88
13027;BME280;6580;42.680;23.324;2022-11-06T04:02:22;94787.88;;;14.43;81.93
13027;BME280;6580;42.680;23.324;2022-11-06T04:04:58;94792.31;;;14.57;80.79
13027;BME280;6580;42.680;23.324;2022-11-06T04:07:31;94798.59;;;14.43;82.01
13027;BME280;6580;42.680;23.324;2022-11-06T04:10:04;94798.25;;;14.32;84.00
13027;BME280;6580;42.680;23.324;2022-11-06T04:12:50;94807.25;;;14.24;86.51
13027;BME280;6580;42.680;23.324;2022-11-06T04:15:41;94806.88;;;14.27;88.14
13027;BME280;6580;42.680;23.324;2022-11-06T04:18:17;94801.34;;;14.15;90.85
13027;BME280;6580;42.680;23.324;2022-11-06T04:20:48;94811.25;;;14.00;93.74
13027;BME280;6580;42.680;23.324;2022-11-06T04:23:46;94802.78;;;13.96;96.10
13027;BME280;6580;42.680;23.324;2022-11-06T04:26:45;94802.84;;;14.03;96.85
13027;BME280;6580;42.680;23.324;2022-11-06T04:29:18;94797.22;;;13.98;97.63
13027;BME280;6580;42.680;23.324;2022-11-06T04:31:53;94814.94;;;14.13;97.93
13027;BME280;6580;42.680;23.324;2022-11-06T04:34:29;94811.69;;;14.18;97.98
13027;BME280;6580;42.680;23.324;2022-11-06T04:37:05;94819.72;;;14.18;98.23
13027;BME280;6580;42.680;23.324;2022-11-06T04:39:40;94818.28;;;14.15;99.05
13027;BME280;6580;42.680;23.324;2022-11-06T04:42:16;94816.31;;;14.09;99.93
13027;BME280;6580;42.680;23.324;2022-11-06T04:44:49;94814.63;;;14.08;100.00
13027;BME280;6580;42.680;23.324;2022-11-06T04:47:21;94817.69;;;14.05;100.00
13027;BME280;6580;42.680;23.324;2022-11-06T04:49:51;94803.34;;;13.92;100.00
13027;BME280;6580;42.680;23.324;2022-11-06T04:52:22;94816.53;;;13.93;100.00
13027;BME280;6580;42.680;23.324;2022-11-06T04:54:52;94823.72;;;13.93;100.00
13027;BME280;6580;42.680;23.324;2022-11-06T04:57:21;94815.38;;;14.02;100.00
13027;BME280;6580;42.680;23.324;2022-11-06T04:59:49;94808.69;;;13.92;100.00
13027;BME280;6580;42.680;23.324;2022-11-06T05:02:17;94822.22;;;14.05;100.00
13027;BME280;6580;42.680;23.324;2022-11-06T05:04:45;94827.31;;;14.14;100.00
13027;BME280;6580;42.680;23.324;2022-11-06T05:07:13;94830.84;;;14.00;100.00
13027;BME280;6580;42.680;23.324;2022-11-06T05:09:41;94833.25;;;13.95;100.00
13027;BME280;6580;42.680;23.324;2022-11-06T05:12:11;94847.41;;;14.10;100.00
13027;BME280;6580;42.680;23.324;2022-11-06T05:14:49;94847.63;;;14.09;100.00
13027;BME280;6580;42.680;23.324;2022-11-06T05:17:17;94851.94;;;14.24;100.00
13027;BME280;6580;42.680;23.324;2022-11-06T05:19:45;94854.44;;;14.11;100.00
13027;BME280;6580;42.680;23.324;2022-11-06T05:22:12;94855.75;;;14.15;100.00
13027;BME280;6580;42.680;23.324;2022-11-06T05:25:08;94871.31;;;14.12;100.00
13027;BME280;6580;42.680;23.324;2022-11-06T05:27:34;94867.84;;;14.25;100.00
13027;BME280;6580;42.680;23.324;2022-11-06T05:30:01;94866.53;;;14.22;100.00
13027;BME280;6580;42.680;23.324;2022-11-06T05:32:28;94869.56;;;14.33;100.00
13027;BME280;6580;42.680;23.324;2022-11-06T05:34:57;94869.44;;;14.41;100.00
13027;BME280;6580;42.680;23.324;2022-11-06T05:37:24;94884.63;;;14.34;100.00
13027;BME280;6580;42.680;23.324;2022-11-06T05:39:53;94873.34;;;14.38;100.00
13027;BME280;6580;42.680;23.324;2022-11-06T05:42:21;94875.16;;;14.38;100.00
13027;BME280;6580;42.680;23.324;2022-11-06T05:44:48;94872.38;;;14.46;100.00
13027;BME280;6580;42.680;23.324;2022-11-06T05:47:15;94878.06;;;14.57;100.00
13027;BME280;6580;42.680;23.324;2022-11-06T05:49:42;94880.72;;;14.72;100.00
13027;BME280;6580;42.680;23.324;2022-11-06T05:52:10;94886.63;;;14.88;100.00
13027;BME280;6580;42.680;23.324;2022-11-06T05:54:37;94897.66;;;14.79;100.00
13027;BME280;6580;42.680;23.324;2022-11-06T05:57:04;94900.13;;;14.74;100.00
13027;BME280;6580;42.680;23.324;2022-11-06T05:59:31;94906.41;;;14.87;100.00
13027;BME280;6580;42.680;23.324;2022-11-06T06:01:59;94903.63;;;15.16;100.00
13027;BME280;6580;42.680;23.324;2022-11-06T06:04:27;94911.41;;;15.11;98.70
13027;BME280;6580;42.680;23.324;2022-11-06T06:06:54;94916.56;;;15.13;100.00
13027;BME280;6580;42.680;23.324;2022-11-06T06:09:22;94900.25;;;15.08;100.00
13027;BME280;6580;42.680;23.324;2022-11-06T06:11:49;94910.75;;;15.09;98.54
13027;BME280;6580;42.680;23.324;2022-11-06T06:14:17;94913.38;;;15.03;100.00
13027;BME280;6580;42.680;23.324;2022-11-06T06:16:44;94914.03;;;15.05;99.58
13027;BME280;6580;42.680;23.324;2022-11-06T06:19:11;94915.69;;;15.06;99.51
13027;BME280;6580;42.680;23.324;2022-11-06T06:21:40;94916.06;;;15.03;99.37
13027;BME280;6580;42.680;23.324;2022-11-06T06:24:07;94915.41;;;14.80;100.00
13027;BME280;6580;42.680;23.324;2022-11-06T06:26:39;94924.38;;;14.87;100.00
13027;BME280;6580;42.680;23.324;2022-11-06T06:29:06;94922.06;;;14.84;100.00
13027;BME280;6580;42.680;23.324;2022-11-06T06:31:36;94925.88;;;14.75;100.00
13027;BME280;6580;42.680;23.324;2022-11-06T06:34:06;94916.06;;;14.82;100.00
13027;BME280;6580;42.680;23.324;2022-11-06T06:36:34;94925.13;;;15.02;100.00
13027;BME280;6580;42.680;23.324;2022-11-06T06:39:01;94928.09;;;15.07;100.00
13027;BME280;6580;42.680;23.324;2022-11-06T06:41:28;94940.16;;;15.17;100.00
13027;BME280;6580;42.680;23.324;2022-11-06T06:43:56;94947.22;;;15.24;99.81
13027;BME280;6580;42.680;23.324;2022-11-06T06:46:23;94938.44;;;15.10;100.00
13027;BME280;6580;42.680;23.324;2022-11-06T06:48:50;94944.03;;;15.35;98.76
13027;BME280;6580;42.680;23.324;2022-11-06T06:51:17;94950.69;;;15.39;98.18
13027;BME280;6580;42.680;23.324;2022-11-06T06:53:44;94960.00;;;15.23;99.05
13027;BME280;6580;42.680;23.324;2022-11-06T06:56:11;94954.38;;;15.18;99.24
13027;BME280;6580;42.680;23.324;2022-11-06T06:58:38;94953.63;;;15.23;99.11
13027;BME280;6580;42.680;23.324;2022-11-06T07:01:06;94928.72;;;15.29;97.55
13027;BME280;6580;42.680;23.324;2022-11-06T07:03:36;94962.91;;;15.69;95.00
13027;BME280;6580;42.680;23.324;2022-11-06T07:06:04;94959.41;;;15.69;94.20
13027;BME280;6580;42.680;23.324;2022-11-06T07:08:32;94957.53;;;15.69;93.94
13027;BME280;6580;42.680;23.324;2022-11-06T07:10:59;94966.63;;;15.68;94.36
13027;BME280;6580;42.680;23.324;2022-11-06T07:13:26;94970.75;;;15.92;93.56
13027;BME280;6580;42.680;23.324;2022-11-06T07:15:55;94975.91;;;15.93;92.94
13027;BME280;6580;42.680;23.324;2022-11-06T07:18:25;94981.31;;;15.72;93.70
13027;BME280;6580;42.680;23.324;2022-11-06T07:20:55;94981.72;;;15.48;95.42
13027;BME280;6580;42.680;23.324;2022-11-06T07:23:25;94984.66;;;15.53;95.41
13027;BME280;6580;42.680;23.324;2022-11-06T07:25:53;94979.22;;;15.68;94.98
13027;BME280;6580;42.680;23.324;2022-11-06T07:28:20;94976.97;;;15.99;93.10
13027;BME280;6580;42.680;23.324;2022-11-06T07:30:48;94981.31;;;16.00;92.19
13027;BME280;6580;42.680;23.324;2022-11-06T07:33:17;94976.53;;;15.68;94.40
13027;BME280;6580;42.680;23.324;2022-11-06T07:35:46;94980.94;;;16.03;92.69
13027;BME280;6580;42.680;23.324;2022-11-06T07:38:14;94981.69;;;15.69;94.16
13027;BME280;6580;42.680;23.324;2022-11-06T07:40:43;94994.75;;;15.72;95.41
13027;BME280;6580;42.680;23.324;2022-11-06T07:43:12;94993.03;;;15.65;95.96
13027;BME280;6580;42.680;23.324;2022-11-06T07:45:39;94977.94;;;15.64;95.81
13027;BME280;6580;42.680;23.324;2022-11-06T07:48:05;94984.53;;;15.61;95.63
13027;BME280;6580;42.680;23.324;2022-11-06T07:50:32;95000.63;;;15.82;94.76
13027;BME280;6580;42.680;23.324;2022-11-06T07:53:02;94998.34;;;15.58;96.09
13027;BME280;6580;42.680;23.324;2022-11-06T07:55:29;94994.06;;;15.64;96.16
13027;BME280;6580;42.680;23.324;2022-11-06T07:57:57;94999.06;;;15.94;94.89
13027;BME280;6580;42.680;23.324;2022-11-06T08:00:24;94995.81;;;15.78;94.86
13027;BME280;6580;42.680;23.324;2022-11-06T08:02:51;94996.88;;;15.83;94.36
13027;BME280;6580;42.680;23.324;2022-11-06T08:05:22;94986.38;;;15.88;93.30
13027;BME280;6580;42.680;23.324;2022-11-06T08:07:48;95005.34;;;15.80;94.62
13027;BME280;6580;42.680;23.324;2022-11-06T08:10:22;95007.25;;;15.86;94.79
13027;BME280;6580;42.680;23.324;2022-11-06T08:12:49;95007.34;;;15.99;93.25
13027;BME280;6580;42.680;23.324;2022-11-06T08:15:16;95004.91;;;16.04;94.33
13027;BME280;6580;42.680;23.324;2022-11-06T08:17:43;95012.31;;;16.02;94.33
13027;BME280;6580;42.680;23.324;2022-11-06T08:20:10;94979.06;;;15.76;94.99
13027;BME280;6580;42.680;23.324;2022-11-06T08:22:37;95016.19;;;16.21;94.92
13027;BME280;6580;42.680;23.324;2022-11-06T08:25:04;95017.56;;;16.10;95.19
13027;BME280;6580;42.680;23.324;2022-11-06T08:27:37;95016.28;;;16.33;96.71
13027;BME280;6580;42.680;23.324;2022-11-06T08:30:08;95016.75;;;16.37;95.78
13027;BME280;6580;42.680;23.324;2022-11-06T08:32:37;95032.34;;;16.27;96.47
13027;BME280;6580;42.680;23.324;2022-11-06T08:35:05;95022.50;;;16.34;97.98
13027;BME280;6580;42.680;23.324;2022-11-06T08:37:33;95020.22;;;16.31;99.54
13027;BME280;6580;42.680;23.324;2022-11-06T08:40:02;95017.81;;;16.15;100.00
13027;BME280;6580;42.680;23.324;2022-11-06T08:42:29;95022.28;;;16.08;100.00
13027;BME280;6580;42.680;23.324;2022-11-06T08:45:01;95039.34;;;15.94;100.00
13027;BME280;6580;42.680;23.324;2022-11-06T08:47:28;95029.09;;;15.83;100.00
13027;BME280;6580;42.680;23.324;2022-11-06T08:49:55;95039.97;;;15.96;100.00
13027;BME280;6580;42.680;23.324;2022-11-06T08:52:22;95051.84;;;16.08;100.00
13027;BME280;6580;42.680;23.324;2022-11-06T08:57:38;95052.00;;;16.00;100.00
13027;BME280;6580;42.680;23.324;2022-11-06T09:00:08;95056.28;;;16.22;100.00
13027;BME280;6580;42.680;23.324;2022-11-06T09:02:36;95058.66;;;16.11;100.00
13027;BME280;6580;42.680;23.324;2022-11-06T09:05:03;95061.19;;;16.12;100.00
13027;BME280;6580;42.680;23.324;2022-11-06T09:07:30;95061.03;;;16.47;100.00
13027;BME280;6580;42.680;23.324;2022-11-06T09:09:57;95054.38;;;16.37;100.00
13027;BME280;6580;42.680;23.324;2022-11-06T09:12:27;95054.44;;;16.50;100.00
13027;BME280;6580;42.680;23.324;2022-11-06T09:14:53;95061.81;;;16.35;100.00
13027;BME280;6580;42.680;23.324;2022-11-06T09:17:21;95054.81;;;15.92;100.00
13027;BME280;6580;42.680;23.324;2022-11-06T09:19:50;95057.50;;;15.92;100.00
13027;BME280;6580;42.680;23.324;2022-11-06T09:22:20;95060.19;;;16.20;100.00
13027;BME280;6580;42.680;23.324;2022-11-06T09:24:48;95057.66;;;16.39;100.00
13027;BME280;6580;42.680;23.324;2022-11-06T09:27:14;95052.72;;;16.36;100.00
13027;BME280;6580;42.680;23.324;2022-11-06T09:29:41;95051.47;;;16.38;100.00
13027;BME280;6580;42.680;23.324;2022-11-06T09:32:11;95058.63;;;16.04;100.00
13027;BME280;6580;42.680;23.324;2022-11-06T09:34:40;95066.56;;;16.12;100.00
13027;BME280;6580;42.680;23.324;2022-11-06T09:37:09;95064.84;;;16.05;100.00
13027;BME280;6580;42.680;23.324;2022-11-06T09:39:36;95073.50;;;16.00;100.00
13027;BME280;6580;42.680;23.324;2022-11-06T09:42:11;95057.63;;;15.84;100.00
13027;BME280;6580;42.680;23.324;2022-11-06T09:44:51;95068.50;;;15.97;100.00
13027;BME280;6580;42.680;23.324;2022-11-06T09:47:27;95049.19;;;15.87;100.00
13027;BME280;6580;42.680;23.324;2022-11-06T09:50:01;95063.50;;;15.94;100.00
13027;BME280;6580;42.680;23.324;2022-11-06T09:52:34;95066.84;;;16.24;100.00
13027;BME280;6580;42.680;23.324;2022-11-06T09:55:11;95071.56;;;15.94;100.00
13027;BME280;6580;42.680;23.324;2022-11-06T09:57:43;95061.81;;;15.87;100.00
13027;BME280;6580;42.680;23.324;2022-11-06T10:00:13;95069.41;;;16.11;100.00
13027;BME280;6580;42.680;23.324;2022-11-06T10:02:44;95070.56;;;15.95;100.00
13027;BME280;6580;42.680;23.324;2022-11-06T10:05:22;95053.88;;;15.79;100.00
13027;BME280;6580;42.680;23.324;2022-11-06T10:07:53;95062.78;;;15.79;100.00
13027;BME280;6580;42.680;23.324;2022-11-06T10:10:27;95066.81;;;15.69;100.00
13027;BME280;6580;42.680;23.324;2022-11-06T10:13:11;95068.53;;;15.76;100.00
13027;BME280;6580;42.680;23.324;2022-11-06T10:15:45;95067.22;;;15.93;100.00
13027;BME280;6580;42.680;23.324;2022-11-06T10:18:21;95061.47;;;15.96;100.00
13027;BME280;6580;42.680;23.324;2022-11-06T10:20:53;95066.59;;;15.91;100.00
13027;BME280;6580;42.680;23.324;2022-11-06T10:23:31;95064.34;;;16.22;100.00
13027;BME280;6580;42.680;23.324;2022-11-06T10:26:08;95066.94;;;16.09;100.00
13027;BME280;6580;42.680;23.324;2022-11-06T10:28:53;95050.03;;;16.15;100.00
13027;BME280;6580;42.680;23.324;2022-11-06T10:31:30;95057.97;;;16.29;100.00
13027;BME280;6580;42.680;23.324;2022-11-06T10:34:01;95060.13;;;16.34;100.00
13027;BME280;6580;42.680;23.324;2022-11-06T10:36:35;95054.53;;;16.08;100.00
13027;BME280;6580;42.680;23.324;2022-11-06T10:39:11;95070.56;;;15.95;100.00
13027;BME280;6580;42.680;23.324;2022-11-06T10:41:45;95068.22;;;16.13;100.00
13027;BME280;6580;42.680;23.324;2022-11-06T10:44:19;95063.34;;;16.02;100.00
13027;BME280;6580;42.680;23.324;2022-11-06T10:46:49;95050.00;;;16.09;100.00
13027;BME280;6580;42.680;23.324;2022-11-06T10:49:26;95066.25;;;16.28;100.00
13027;BME280;6580;42.680;23.324;2022-11-06T10:52:12;95066.59;;;15.91;100.00
13027;BME280;6580;42.680;23.324;2022-11-06T10:54:51;95069.59;;;15.61;100.00
13027;BME280;6580;42.680;23.324;2022-11-06T10:57:26;95064.75;;;15.50;100.00
13027;BME280;6580;42.680;23.324;2022-11-06T10:59:55;95066.34;;;15.65;100.00
13027;BME280;6580;42.680;23.324;2022-11-06T11:02:26;95067.81;;;15.68;100.00
13027;BME280;6580;42.680;23.324;2022-11-06T11:04:56;95064.03;;;15.83;100.00
13027;BME280;6580;42.680;23.324;2022-11-06T11:07:29;95076.03;;;16.08;100.00
13027;BME280;6580;42.680;23.324;2022-11-06T11:09:57;95066.78;;;15.90;100.00
13027;BME280;6580;42.680;23.324;2022-11-06T11:12:35;95080.53;;;16.01;100.00
13027;BME280;6580;42.680;23.324;2022-11-06T11:15:11;95073.53;;;16.07;100.00
13027;BME280;6580;42.680;23.324;2022-11-06T11:17:40;95077.34;;;16.19;100.00
13027;BME280;6580;42.680;23.324;2022-11-06T11:20:38;95070.50;;;16.16;100.00
13027;BME280;6580;42.680;23.324;2022-11-06T11:23:13;95066.63;;;16.25;100.00
13027;BME280;6580;42.680;23.324;2022-11-06T11:25:44;95057.56;;;16.26;100.00
13027;BME280;6580;42.680;23.324;2022-11-06T11:28:27;95056.84;;;16.38;100.00
13027;BME280;6580;42.680;23.324;2022-11-06T11:31:05;95055.22;;;16.44;100.00
13027;BME280;6580;42.680;23.324;2022-11-06T11:33:33;95057.78;;;16.52;100.00
13027;BME280;6580;42.680;23.324;2022-11-06T11:36:01;95059.50;;;16.11;100.00
13027;BME280;6580;42.680;23.324;2022-11-06T11:38:33;95052.72;;;16.15;100.00
13027;BME280;6580;42.680;23.324;2022-11-06T11:41:06;95057.41;;;16.07;100.00
13027;BME280;6580;42.680;23.324;2022-11-06T11:43:34;95054.22;;;16.24;100.00
13027;BME280;6580;42.680;23.324;2022-11-06T11:46:03;95059.84;;;16.02;100.00
13027;BME280;6580;42.680;23.324;2022-11-06T11:48:43;95053.38;;;16.17;100.00
13027;BME280;6580;42.680;23.324;2022-11-06T11:51:31;95047.53;;;16.14;100.00
13027;BME280;6580;42.680;23.324;2022-11-06T11:54:19;95043.13;;;16.06;100.00
13027;BME280;6580;42.680;23.324;2022-11-06T11:56:50;95059.97;;;16.42;100.00
13027;BME280;6580;42.680;23.324;2022-11-06T11:59:21;95045.84;;;16.06;100.00
13027;BME280;6580;42.680;23.324;2022-11-06T12:01:48;95042.03;;;15.94;100.00
13027;BME280;6580;42.680;23.324;2022-11-06T12:04:20;95042.34;;;16.33;100.00
13027;BME280;6580;42.680;23.324;2022-11-06T12:06:56;95044.97;;;15.99;100.00
13027;BME280;6580;42.680;23.324;2022-11-06T12:09:28;95032.06;;;15.88;100.00
13027;BME280;6580;42.680;23.324;2022-11-06T12:12:00;95040.78;;;15.97;100.00
13027;BME280;6580;42.680;23.324;2022-11-06T12:14:40;95043.19;;;15.85;100.00
13027;BME280;6580;42.680;23.324;2022-11-06T12:17:16;95055.19;;;15.89;100.00
13027;BME280;6580;42.680;23.324;2022-11-06T12:19:48;95050.69;;;15.48;100.00
13027;BME280;6580;42.680;23.324;2022-11-06T12:22:22;95042.06;;;15.52;100.00
13027;BME280;6580;42.680;23.324;2022-11-06T12:25:00;95048.22;;;15.95;100.00
13027;BME280;6580;42.680;23.324;2022-11-06T12:27:31;95051.75;;;15.95;100.00
13027;BME280;6580;42.680;23.324;2022-11-06T12:30:03;95052.25;;;15.84;100.00
13027;BME280;6580;42.680;23.324;2022-11-06T12:32:43;95044.19;;;15.84;100.00
13027;BME280;6580;42.680;23.324;2022-11-06T12:35:18;95057.13;;;15.74;100.00
13027;BME280;6580;42.680;23.324;2022-11-06T12:37:59;95051.28;;;15.64;100.00
13027;BME280;6580;42.680;23.324;2022-11-06T12:40:39;95044.75;;;15.73;100.00
13027;BME280;6580;42.680;23.324;2022-11-06T12:43:15;95050.56;;;16.04;100.00
13027;BME280;6580;42.680;23.324;2022-11-06T12:45:56;95046.47;;;16.08;100.00
13027;BME280;6580;42.680;23.324;2022-11-06T12:49:02;95044.47;;;16.17;100.00
13027;BME280;6580;42.680;23.324;2022-11-06T12:51:43;95037.25;;;16.17;100.00
13027;BME280;6580;42.680;23.324;2022-11-06T12:54:32;95050.81;;;16.09;100.00
13027;BME280;6580;42.680;23.324;2022-11-06T12:57:10;95053.84;;;16.27;100.00
13027;BME280;6580;42.680;23.324;2022-11-06T12:59:48;95039.59;;;15.99;100.00
13027;BME280;6580;42.680;23.324;2022-11-06T13:02:26;95054.28;;;16.30;100.00
13027;BME280;6580;42.680;23.324;2022-11-06T13:05:01;95052.34;;;16.45;100.00
13027;BME280;6580;42.680;23.324;2022-11-06T13:07:59;95051.72;;;16.16;100.00
13027;BME280;6580;42.680;23.324;2022-11-06T13:10:40;95056.81;;;16.32;100.00
13027;BME280;6580;42.680;23.324;2022-11-06T13:16:30;95051.88;;;16.15;100.00
13027;BME280;6580;42.680;23.324;2022-11-06T13:19:04;95058.66;;;16.11;100.00
13027;BME280;6580;42.680;23.324;2022-11-06T13:21:52;95061.22;;;15.91;100.00
13027;BME280;6580;42.680;23.324;2022-11-06T13:24:25;95061.94;;;16.06;100.00
13027;BME280;6580;42.680;23.324;2022-11-06T13:26:59;95066.38;;;15.93;100.00
13027;BME280;6580;42.680;23.324;2022-11-06T13:29:39;95066.66;;;15.77;100.00